sensor_id;sensor_type;location;lat;lon;timestamp;temperature;humidity
42199;DHT22;27868;45.184;5.786;2023-02-26T00:01:17;10.60;73.20
42199;DHT22;27868;45.184;5.786;2023-02-26T00:04:03;10.60;73.20
42199;DHT22;27868;45.184;5.786;2023-02-26T00:06:48;10.60;73.10
42199;DHT22;27868;45.184;5.786;2023-02-26T00:09:36;10.60;73.00
42199;DHT22;27868;45.184;5.786;2023-02-26T00:12:21;10.50;72.90
42199;DHT22;27868;45.184;5.786;2023-02-26T00:15:07;10.50;72.90
42199;DHT22;27868;45.184;5.786;2023-02-26T00:18:02;10.50;73.20
42199;DHT22;27868;45.184;5.786;2023-02-26T00:20:47;10.60;72.50
42199;DHT22;27868;45.184;5.786;2023-02-26T00:23:32;10.60;72.60
42199;DHT22;27868;45.184;5.786;2023-02-26T00:26:17;10.50;72.10
42199;DHT22;27868;45.184;5.786;2023-02-26T00:29:03;10.50;72.20
42199;DHT22;27868;45.184;5.786;2023-02-26T00:31:47;10.50;72.00
42199;DHT22;27868;45.184;5.786;2023-02-26T00:34:33;10.50;72.20
42199;DHT22;27868;45.184;5.786;2023-02-26T00:43:20;10.40;72.00
42199;DHT22;27868;45.184;5.786;2023-02-26T00:46:20;10.40;72.10
42199;DHT22;27868;45.184;5.786;2023-02-26T00:51:57;10.40;72.40
42199;DHT22;27868;45.184;5.786;2023-02-26T00:54:42;10.40;72.00
42199;DHT22;27868;45.184;5.786;2023-02-26T00:57:27;10.40;72.20
42199;DHT22;27868;45.184;5.786;2023-02-26T01:00:12;10.30;72.10
42199;DHT22;27868;45.184;5.786;2023-02-26T01:02:57;10.30;72.20
42199;DHT22;27868;45.184;5.786;2023-02-26T01:05:42;10.30;72.20
42199;DHT22;27868;45.184;5.786;2023-02-26T01:08:33;10.30;71.70
42199;DHT22;27868;45.184;5.786;2023-02-26T01:11:19;10.30;71.60
42199;DHT22;27868;45.184;5.786;2023-02-26T01:14:05;10.30;71.70
42199;DHT22;27868;45.184;5.786;2023-02-26T01:23:03;10.30;71.30
42199;DHT22;27868;45.184;5.786;2023-02-26T01:25:58;10.30;71.40
42199;DHT22;27868;45.184;5.786;2023-02-26T01:28:44;10.30;71.60
42199;DHT22;27868;45.184;5.786;2023-02-26T01:41:21;10.20;71.40
42199;DHT22;27868;45.184;5.786;2023-02-26T01:46:59;10.20;71.40
42199;DHT22;27868;45.184;5.786;2023-02-26T01:49:45;10.20;71.50
42199;DHT22;27868;45.184;5.786;2023-02-26T01:55:23;10.20;71.20
42199;DHT22;27868;45.184;5.786;2023-02-26T01:58:09;10.10;71.10
42199;DHT22;27868;45.184;5.786;2023-02-26T02:00:54;10.10;71.00
42199;DHT22;27868;45.184;5.786;2023-02-26T02:03:41;10.10;71.00
42199;DHT22;27868;45.184;5.786;2023-02-26T02:06:27;10.10;71.00
42199;DHT22;27868;45.184;5.786;2023-02-26T02:09:13;10.10;71.20
42199;DHT22;27868;45.184;5.786;2023-02-26T02:20:56;10.10;70.70
42199;DHT22;27868;45.184;5.786;2023-02-26T02:23:52;10.10;70.80
42199;DHT22;27868;45.184;5.786;2023-02-26T02:33:14;10.00;69.90
42199;DHT22;27868;45.184;5.786;2023-02-26T02:36:06;10.00;70.30
42199;DHT22;27868;45.184;5.786;2023-02-26T02:38:57;10.00;70.30
42199;DHT22;27868;45.184;5.786;2023-02-26T02:41:50;10.00;70.30
42199;DHT22;27868;45.184;5.786;2023-02-26T02:44:39;9.90;70.00
42199;DHT22;27868;45.184;5.786;2023-02-26T02:47:27;10.00;69.90
42199;DHT22;27868;45.184;5.786;2023-02-26T02:50:19;10.00;70.00
42199;DHT22;27868;45.184;5.786;2023-02-26T02:53:28;10.00;70.60
42199;DHT22;27868;45.184;5.786;2023-02-26T02:56:18;9.90;70.80
42199;DHT22;27868;45.184;5.786;2023-02-26T03:05:03;9.90;70.40
42199;DHT22;27868;45.184;5.786;2023-02-26T03:08:07;9.90;70.40
42199;DHT22;27868;45.184;5.786;2023-02-26T03:10:53;9.80;69.70
42199;DHT22;27868;45.184;5.786;2023-02-26T03:13:38;9.80;69.80
42199;DHT22;27868;45.184;5.786;2023-02-26T03:26:31;9.80;69.80
42199;DHT22;27868;45.184;5.786;2023-02-26T03:32:20;9.80;69.00
42199;DHT22;27868;45.184;5.786;2023-02-26T03:35:14;9.80;69.10
42199;DHT22;27868;45.184;5.786;2023-02-26T03:38:05;9.70;68.90
42199;DHT22;27868;45.184;5.786;2023-02-26T03:41:20;9.70;68.90
42199;DHT22;27868;45.184;5.786;2023-02-26T03:44:53;9.70;68.70
42199;DHT22;27868;45.184;5.786;2023-02-26T03:47:14;9.70;68.70
42199;DHT22;27868;45.184;5.786;2023-02-26T03:50:12;9.70;68.80
42199;DHT22;27868;45.184;5.786;2023-02-26T03:52:57;9.70;68.50
42199;DHT22;27868;45.184;5.786;2023-02-26T03:55:48;9.70;68.50
42199;DHT22;27868;45.184;5.786;2023-02-26T03:58:34;9.70;67.90
42199;DHT22;27868;45.184;5.786;2023-02-26T04:01:23;9.60;67.70
42199;DHT22;27868;45.184;5.786;2023-02-26T04:04:11;9.60;68.00
42199;DHT22;27868;45.184;5.786;2023-02-26T04:06:56;9.50;68.00
42199;DHT22;27868;45.184;5.786;2023-02-26T04:09:43;9.40;67.10
42199;DHT22;27868;45.184;5.786;2023-02-26T04:12:29;9.40;66.10
42199;DHT22;27868;45.184;5.786;2023-02-26T04:15:13;9.30;65.80
42199;DHT22;27868;45.184;5.786;2023-02-26T04:17:58;9.30;66.40
42199;DHT22;27868;45.184;5.786;2023-02-26T04:20:42;9.30;66.80
42199;DHT22;27868;45.184;5.786;2023-02-26T04:23:27;9.40;67.10
42199;DHT22;27868;45.184;5.786;2023-02-26T04:26:12;9.30;65.60
42199;DHT22;27868;45.184;5.786;2023-02-26T04:28:57;9.30;65.90
42199;DHT22;27868;45.184;5.786;2023-02-26T04:31:41;9.30;66.30
42199;DHT22;27868;45.184;5.786;2023-02-26T04:34:26;9.20;65.80
42199;DHT22;27868;45.184;5.786;2023-02-26T04:37:11;9.10;64.90
42199;DHT22;27868;45.184;5.786;2023-02-26T04:39:55;9.20;65.40
42199;DHT22;27868;45.184;5.786;2023-02-26T04:42:40;9.20;65.30
42199;DHT22;27868;45.184;5.786;2023-02-26T04:45:25;9.20;65.30
42199;DHT22;27868;45.184;5.786;2023-02-26T04:48:10;9.10;62.80
42199;DHT22;27868;45.184;5.786;2023-02-26T04:50:54;8.90;64.90
42199;DHT22;27868;45.184;5.786;2023-02-26T04:53:39;8.50;63.60
42199;DHT22;27868;45.184;5.786;2023-02-26T04:56:24;8.60;65.70
42199;DHT22;27868;45.184;5.786;2023-02-26T04:59:09;8.70;65.30
42199;DHT22;27868;45.184;5.786;2023-02-26T05:01:53;8.70;64.60
42199;DHT22;27868;45.184;5.786;2023-02-26T05:04:38;8.70;64.90
42199;DHT22;27868;45.184;5.786;2023-02-26T05:07:22;8.70;65.30
42199;DHT22;27868;45.184;5.786;2023-02-26T05:10:07;8.60;64.50
42199;DHT22;27868;45.184;5.786;2023-02-26T05:12:52;8.60;65.20
42199;DHT22;27868;45.184;5.786;2023-02-26T05:15:36;8.60;65.40
42199;DHT22;27868;45.184;5.786;2023-02-26T05:18:21;8.60;64.50
42199;DHT22;27868;45.184;5.786;2023-02-26T05:21:05;8.60;65.10
42199;DHT22;27868;45.184;5.786;2023-02-26T05:23:50;8.70;65.60
42199;DHT22;27868;45.184;5.786;2023-02-26T05:26:34;8.80;66.10
42199;DHT22;27868;45.184;5.786;2023-02-26T05:29:19;8.70;66.00
42199;DHT22;27868;45.184;5.786;2023-02-26T05:32:04;8.80;66.10
42199;DHT22;27868;45.184;5.786;2023-02-26T05:34:48;8.80;66.40
42199;DHT22;27868;45.184;5.786;2023-02-26T05:37:33;8.80;66.60
42199;DHT22;27868;45.184;5.786;2023-02-26T05:40:17;8.80;66.60
42199;DHT22;27868;45.184;5.786;2023-02-26T05:43:02;8.70;66.30
42199;DHT22;27868;45.184;5.786;2023-02-26T05:45:49;8.70;66.10
42199;DHT22;27868;45.184;5.786;2023-02-26T05:48:34;8.70;65.90
42199;DHT22;27868;45.184;5.786;2023-02-26T05:51:18;8.60;65.50
42199;DHT22;27868;45.184;5.786;2023-02-26T05:54:03;8.60;65.50
42199;DHT22;27868;45.184;5.786;2023-02-26T05:56:47;8.60;66.00
42199;DHT22;27868;45.184;5.786;2023-02-26T05:59:32;8.60;66.30
42199;DHT22;27868;45.184;5.786;2023-02-26T06:02:17;8.60;65.90
42199;DHT22;27868;45.184;5.786;2023-02-26T06:05:02;8.60;65.70
42199;DHT22;27868;45.184;5.786;2023-02-26T06:07:47;8.50;66.00
42199;DHT22;27868;45.184;5.786;2023-02-26T06:10:32;8.60;66.00
42199;DHT22;27868;45.184;5.786;2023-02-26T06:13:18;8.60;66.00
42199;DHT22;27868;45.184;5.786;2023-02-26T06:16:03;8.40;66.00
42199;DHT22;27868;45.184;5.786;2023-02-26T06:18:48;8.40;66.30
42199;DHT22;27868;45.184;5.786;2023-02-26T06:21:33;8.40;66.30
42199;DHT22;27868;45.184;5.786;2023-02-26T06:24:18;8.40;65.90
42199;DHT22;27868;45.184;5.786;2023-02-26T06:27:03;8.30;66.20
42199;DHT22;27868;45.184;5.786;2023-02-26T06:29:47;8.40;66.20
42199;DHT22;27868;45.184;5.786;2023-02-26T06:32:32;8.30;66.00
42199;DHT22;27868;45.184;5.786;2023-02-26T06:35:18;8.30;66.00
42199;DHT22;27868;45.184;5.786;2023-02-26T06:38:03;8.20;66.70
42199;DHT22;27868;45.184;5.786;2023-02-26T06:40:48;8.30;66.40
42199;DHT22;27868;45.184;5.786;2023-02-26T06:43:33;8.30;66.80
42199;DHT22;27868;45.184;5.786;2023-02-26T06:46:17;8.30;66.70
42199;DHT22;27868;45.184;5.786;2023-02-26T06:49:02;8.30;66.50
42199;DHT22;27868;45.184;5.786;2023-02-26T06:51:47;8.20;66.40
42199;DHT22;27868;45.184;5.786;2023-02-26T06:54:31;8.20;66.50
42199;DHT22;27868;45.184;5.786;2023-02-26T06:57:16;8.30;66.60
42199;DHT22;27868;45.184;5.786;2023-02-26T07:00:07;8.30;66.40
42199;DHT22;27868;45.184;5.786;2023-02-26T07:02:52;8.20;66.20
42199;DHT22;27868;45.184;5.786;2023-02-26T07:05:36;8.10;66.00
42199;DHT22;27868;45.184;5.786;2023-02-26T07:08:21;8.20;66.20
42199;DHT22;27868;45.184;5.786;2023-02-26T07:11:06;8.10;66.30
42199;DHT22;27868;45.184;5.786;2023-02-26T07:13:52;8.10;66.40
42199;DHT22;27868;45.184;5.786;2023-02-26T07:16:36;8.20;66.00
42199;DHT22;27868;45.184;5.786;2023-02-26T07:19:20;8.10;66.10
42199;DHT22;27868;45.184;5.786;2023-02-26T07:22:05;8.20;66.40
42199;DHT22;27868;45.184;5.786;2023-02-26T07:24:50;8.20;64.80
42199;DHT22;27868;45.184;5.786;2023-02-26T07:27:34;8.10;65.80
42199;DHT22;27868;45.184;5.786;2023-02-26T07:30:19;7.90;65.50
42199;DHT22;27868;45.184;5.786;2023-02-26T07:33:04;7.90;65.00
42199;DHT22;27868;45.184;5.786;2023-02-26T07:35:48;7.80;66.30
42199;DHT22;27868;45.184;5.786;2023-02-26T07:38:33;7.90;66.40
42199;DHT22;27868;45.184;5.786;2023-02-26T07:41:17;8.00;65.30
42199;DHT22;27868;45.184;5.786;2023-02-26T07:44:02;8.00;66.00
42199;DHT22;27868;45.184;5.786;2023-02-26T07:46:47;8.00;65.70
42199;DHT22;27868;45.184;5.786;2023-02-26T07:49:32;8.10;65.80
42199;DHT22;27868;45.184;5.786;2023-02-26T07:52:17;8.10;65.50
42199;DHT22;27868;45.184;5.786;2023-02-26T07:55:02;8.00;65.70
42199;DHT22;27868;45.184;5.786;2023-02-26T07:57:47;8.00;65.50
42199;DHT22;27868;45.184;5.786;2023-02-26T08:00:31;8.00;64.40
42199;DHT22;27868;45.184;5.786;2023-02-26T08:03:17;8.00;65.50
42199;DHT22;27868;45.184;5.786;2023-02-26T08:06:02;8.10;65.60
42199;DHT22;27868;45.184;5.786;2023-02-26T08:08:48;8.10;65.90
42199;DHT22;27868;45.184;5.786;2023-02-26T08:11:33;8.10;65.20
42199;DHT22;27868;45.184;5.786;2023-02-26T08:14:20;8.20;65.20
42199;DHT22;27868;45.184;5.786;2023-02-26T08:17:04;8.10;65.40
42199;DHT22;27868;45.184;5.786;2023-02-26T08:19:49;8.20;65.90
42199;DHT22;27868;45.184;5.786;2023-02-26T08:22:34;8.10;64.20
42199;DHT22;27868;45.184;5.786;2023-02-26T08:25:18;8.00;65.20
42199;DHT22;27868;45.184;5.786;2023-02-26T08:28:03;8.10;65.80
42199;DHT22;27868;45.184;5.786;2023-02-26T08:30:51;8.20;65.80
42199;DHT22;27868;45.184;5.786;2023-02-26T08:33:41;8.20;65.70
42199;DHT22;27868;45.184;5.786;2023-02-26T08:36:35;8.30;66.20
42199;DHT22;27868;45.184;5.786;2023-02-26T08:39:18;8.30;66.00
42199;DHT22;27868;45.184;5.786;2023-02-26T08:42:07;8.30;65.00
42199;DHT22;27868;45.184;5.786;2023-02-26T08:44:52;8.30;64.50
42199;DHT22;27868;45.184;5.786;2023-02-26T08:47:37;8.30;65.00
42199;DHT22;27868;45.184;5.786;2023-02-26T08:50:25;8.30;64.70
42199;DHT22;27868;45.184;5.786;2023-02-26T08:53:10;8.30;64.20
42199;DHT22;27868;45.184;5.786;2023-02-26T08:55:55;8.30;64.00
42199;DHT22;27868;45.184;5.786;2023-02-26T08:58:40;8.10;62.60
42199;DHT22;27868;45.184;5.786;2023-02-26T09:01:25;8.20;62.80
42199;DHT22;27868;45.184;5.786;2023-02-26T09:04:09;8.00;62.50
42199;DHT22;27868;45.184;5.786;2023-02-26T09:06:54;8.10;63.50
42199;DHT22;27868;45.184;5.786;2023-02-26T09:09:38;7.90;60.10
42199;DHT22;27868;45.184;5.786;2023-02-26T09:12:23;8.00;62.60
42199;DHT22;27868;45.184;5.786;2023-02-26T09:15:09;7.90;63.00
42199;DHT22;27868;45.184;5.786;2023-02-26T09:17:54;7.90;61.80
42199;DHT22;27868;45.184;5.786;2023-02-26T09:20:41;7.80;61.70
42199;DHT22;27868;45.184;5.786;2023-02-26T09:23:26;7.90;62.60
42199;DHT22;27868;45.184;5.786;2023-02-26T09:26:11;7.80;61.90
42199;DHT22;27868;45.184;5.786;2023-02-26T09:28:55;7.70;61.40
42199;DHT22;27868;45.184;5.786;2023-02-26T09:31:40;7.70;60.40
42199;DHT22;27868;45.184;5.786;2023-02-26T09:34:25;7.80;62.20
42199;DHT22;27868;45.184;5.786;2023-02-26T09:37:09;8.00;63.10
42199;DHT22;27868;45.184;5.786;2023-02-26T09:39:54;7.90;60.40
42199;DHT22;27868;45.184;5.786;2023-02-26T09:45:53;7.80;61.20
42199;DHT22;27868;45.184;5.786;2023-02-26T09:48:39;8.00;61.20
42199;DHT22;27868;45.184;5.786;2023-02-26T09:51:24;7.90;60.70
42199;DHT22;27868;45.184;5.786;2023-02-26T09:54:18;7.80;59.40
42199;DHT22;27868;45.184;5.786;2023-02-26T09:57:05;7.70;59.80
42199;DHT22;27868;45.184;5.786;2023-02-26T09:59:53;7.80;59.70
42199;DHT22;27868;45.184;5.786;2023-02-26T10:02:45;7.60;59.30
42199;DHT22;27868;45.184;5.786;2023-02-26T10:05:45;7.80;59.80
42199;DHT22;27868;45.184;5.786;2023-02-26T10:08:41;7.80;58.20
42199;DHT22;27868;45.184;5.786;2023-02-26T10:11:41;7.80;59.40
42199;DHT22;27868;45.184;5.786;2023-02-26T10:21:08;8.00;59.00
42199;DHT22;27868;45.184;5.786;2023-02-26T10:23:59;7.90;58.00
42199;DHT22;27868;45.184;5.786;2023-02-26T10:26:59;7.90;59.40
42199;DHT22;27868;45.184;5.786;2023-02-26T10:29:59;7.90;58.90
42199;DHT22;27868;45.184;5.786;2023-02-26T10:35:49;7.80;57.80
42199;DHT22;27868;45.184;5.786;2023-02-26T10:38:36;7.90;58.80
42199;DHT22;27868;45.184;5.786;2023-02-26T10:41:24;7.90;59.40
42199;DHT22;27868;45.184;5.786;2023-02-26T10:44:19;8.00;59.30
42199;DHT22;27868;45.184;5.786;2023-02-26T10:50:14;8.00;57.10
42199;DHT22;27868;45.184;5.786;2023-02-26T10:52:59;8.10;58.00
42199;DHT22;27868;45.184;5.786;2023-02-26T10:55:50;8.10;58.30
42199;DHT22;27868;45.184;5.786;2023-02-26T10:58:35;8.10;55.90
42199;DHT22;27868;45.184;5.786;2023-02-26T11:01:23;8.00;57.40
42199;DHT22;27868;45.184;5.786;2023-02-26T11:04:17;7.80;56.70
42199;DHT22;27868;45.184;5.786;2023-02-26T11:07:04;7.90;56.80
42199;DHT22;27868;45.184;5.786;2023-02-26T11:09:50;7.90;56.10
42199;DHT22;27868;45.184;5.786;2023-02-26T11:12:36;7.80;54.70
42199;DHT22;27868;45.184;5.786;2023-02-26T11:15:22;7.70;56.40
42199;DHT22;27868;45.184;5.786;2023-02-26T11:18:14;7.80;57.50
42199;DHT22;27868;45.184;5.786;2023-02-26T11:21:04;7.90;56.90
42199;DHT22;27868;45.184;5.786;2023-02-26T11:24:00;7.70;54.60
42199;DHT22;27868;45.184;5.786;2023-02-26T11:26:47;7.90;56.40
42199;DHT22;27868;45.184;5.786;2023-02-26T11:29:38;7.80;55.40
42199;DHT22;27868;45.184;5.786;2023-02-26T11:32:30;7.50;54.50
42199;DHT22;27868;45.184;5.786;2023-02-26T11:35:16;7.50;56.30
42199;DHT22;27868;45.184;5.786;2023-02-26T11:38:02;7.60;56.60
42199;DHT22;27868;45.184;5.786;2023-02-26T11:40:53;7.70;56.40
42199;DHT22;27868;45.184;5.786;2023-02-26T11:43:42;7.80;56.60
42199;DHT22;27868;45.184;5.786;2023-02-26T11:46:27;8.00;56.20
42199;DHT22;27868;45.184;5.786;2023-02-26T11:49:14;8.00;56.40
42199;DHT22;27868;45.184;5.786;2023-02-26T11:54:58;8.00;56.20
42199;DHT22;27868;45.184;5.786;2023-02-26T11:57:43;8.00;56.00
42199;DHT22;27868;45.184;5.786;2023-02-26T12:00:38;7.90;54.70
42199;DHT22;27868;45.184;5.786;2023-02-26T12:03:26;8.00;55.90
42199;DHT22;27868;45.184;5.786;2023-02-26T12:06:20;7.80;54.10
42199;DHT22;27868;45.184;5.786;2023-02-26T12:09:11;7.60;54.70
42199;DHT22;27868;45.184;5.786;2023-02-26T12:14:58;7.60;54.00
42199;DHT22;27868;45.184;5.786;2023-02-26T12:18:14;7.50;54.50
42199;DHT22;27868;45.184;5.786;2023-02-26T12:21:14;7.60;54.70
42199;DHT22;27868;45.184;5.786;2023-02-26T12:30:37;7.40;53.20
42199;DHT22;27868;45.184;5.786;2023-02-26T12:34:05;7.20;52.50
42199;DHT22;27868;45.184;5.786;2023-02-26T12:47:33;7.00;52.00
42199;DHT22;27868;45.184;5.786;2023-02-26T12:50:12;7.10;53.30
42199;DHT22;27868;45.184;5.786;2023-02-26T13:03:01;7.10;51.10
42199;DHT22;27868;45.184;5.786;2023-02-26T13:06:13;7.00;52.40
42199;DHT22;27868;45.184;5.786;2023-02-26T13:09:26;6.60;51.00
42199;DHT22;27868;45.184;5.786;2023-02-26T13:18:19;6.50;51.00
42199;DHT22;27868;45.184;5.786;2023-02-26T13:21:17;6.60;52.70
42199;DHT22;27868;45.184;5.786;2023-02-26T13:26:52;6.80;52.80
42199;DHT22;27868;45.184;5.786;2023-02-26T13:29:45;6.90;53.30
42199;DHT22;27868;45.184;5.786;2023-02-26T13:32:31;6.90;52.60
42199;DHT22;27868;45.184;5.786;2023-02-26T13:35:21;7.00;53.40
42199;DHT22;27868;45.184;5.786;2023-02-26T13:38:20;7.00;51.50
42199;DHT22;27868;45.184;5.786;2023-02-26T13:41:18;6.80;52.00
42199;DHT22;27868;45.184;5.786;2023-02-26T13:44:31;6.70;50.80
42199;DHT22;27868;45.184;5.786;2023-02-26T13:48:06;6.70;52.80
42199;DHT22;27868;45.184;5.786;2023-02-26T13:50:51;6.70;50.80
42199;DHT22;27868;45.184;5.786;2023-02-26T14:02:02;7.10;52.80
42199;DHT22;27868;45.184;5.786;2023-02-26T14:04:57;6.80;50.10
42199;DHT22;27868;45.184;5.786;2023-02-26T14:07:53;6.70;51.40
42199;DHT22;27868;45.184;5.786;2023-02-26T14:13:38;6.90;52.20
42199;DHT22;27868;45.184;5.786;2023-02-26T14:16:27;7.00;52.90
42199;DHT22;27868;45.184;5.786;2023-02-26T14:27:44;6.80;51.10
42199;DHT22;27868;45.184;5.786;2023-02-26T14:30:33;6.70;51.30
42199;DHT22;27868;45.184;5.786;2023-02-26T14:33:25;6.90;53.10
42199;DHT22;27868;45.184;5.786;2023-02-26T14:36:20;6.80;51.60
42199;DHT22;27868;45.184;5.786;2023-02-26T14:39:14;6.70;50.90
42199;DHT22;27868;45.184;5.786;2023-02-26T14:42:11;6.80;52.40
42199;DHT22;27868;45.184;5.786;2023-02-26T14:45:07;6.90;51.80
42199;DHT22;27868;45.184;5.786;2023-02-26T14:47:55;6.90;52.00
42199;DHT22;27868;45.184;5.786;2023-02-26T14:54:06;6.70;51.20
42199;DHT22;27868;45.184;5.786;2023-02-26T14:57:32;6.60;50.30
42199;DHT22;27868;45.184;5.786;2023-02-26T15:16:48;6.70;51.80
42199;DHT22;27868;45.184;5.786;2023-02-26T15:25:28;6.40;52.10
42199;DHT22;27868;45.184;5.786;2023-02-26T15:28:24;6.40;53.10
42199;DHT22;27868;45.184;5.786;2023-02-26T15:31:10;6.40;52.10
42199;DHT22;27868;45.184;5.786;2023-02-26T15:33:57;6.30;51.20
42199;DHT22;27868;45.184;5.786;2023-02-26T15:36:44;6.30;52.50
42199;DHT22;27868;45.184;5.786;2023-02-26T15:39:29;6.30;53.20
42199;DHT22;27868;45.184;5.786;2023-02-26T15:42:14;6.60;53.40
42199;DHT22;27868;45.184;5.786;2023-02-26T15:45:00;6.50;53.50
42199;DHT22;27868;45.184;5.786;2023-02-26T15:47:51;6.50;52.90
42199;DHT22;27868;45.184;5.786;2023-02-26T15:50:43;6.50;52.50
42199;DHT22;27868;45.184;5.786;2023-02-26T15:53:43;6.40;53.30
42199;DHT22;27868;45.184;5.786;2023-02-26T15:56:34;6.50;54.10
42199;DHT22;27868;45.184;5.786;2023-02-26T15:59:25;6.30;53.90
42199;DHT22;27868;45.184;5.786;2023-02-26T16:02:16;6.30;54.20
42199;DHT22;27868;45.184;5.786;2023-02-26T16:05:03;6.50;54.90
42199;DHT22;27868;45.184;5.786;2023-02-26T16:07:48;6.60;55.00
42199;DHT22;27868;45.184;5.786;2023-02-26T16:10:42;6.70;54.80
42199;DHT22;27868;45.184;5.786;2023-02-26T16:13:30;6.80;55.20
42199;DHT22;27868;45.184;5.786;2023-02-26T16:16:28;6.90;55.00
42199;DHT22;27868;45.184;5.786;2023-02-26T16:22:36;6.80;55.10
42199;DHT22;27868;45.184;5.786;2023-02-26T16:25:35;6.70;55.20
42199;DHT22;27868;45.184;5.786;2023-02-26T16:28:28;6.80;55.60
42199;DHT22;27868;45.184;5.786;2023-02-26T16:31:21;6.70;55.60
42199;DHT22;27868;45.184;5.786;2023-02-26T16:37:34;6.90;55.60
42199;DHT22;27868;45.184;5.786;2023-02-26T16:40:26;6.90;55.80
42199;DHT22;27868;45.184;5.786;2023-02-26T16:43:52;6.80;55.70
42199;DHT22;27868;45.184;5.786;2023-02-26T16:46:43;6.80;56.50
42199;DHT22;27868;45.184;5.786;2023-02-26T16:49:34;6.80;56.00
42199;DHT22;27868;45.184;5.786;2023-02-26T16:52:22;6.80;56.30
42199;DHT22;27868;45.184;5.786;2023-02-26T16:55:10;6.90;56.50
42199;DHT22;27868;45.184;5.786;2023-02-26T16:58:04;6.80;56.70
42199;DHT22;27868;45.184;5.786;2023-02-26T17:00:55;6.80;57.60
42199;DHT22;27868;45.184;5.786;2023-02-26T17:03:55;6.80;58.30
42199;DHT22;27868;45.184;5.786;2023-02-26T17:06:42;6.90;59.40
42199;DHT22;27868;45.184;5.786;2023-02-26T17:09:40;6.90;59.90
42199;DHT22;27868;45.184;5.786;2023-02-26T17:12:43;6.90;60.20
42199;DHT22;27868;45.184;5.786;2023-02-26T17:15:31;6.90;60.60
42199;DHT22;27868;45.184;5.786;2023-02-26T17:18:18;6.90;60.90
42199;DHT22;27868;45.184;5.786;2023-02-26T17:21:04;6.90;61.20
42199;DHT22;27868;45.184;5.786;2023-02-26T17:23:49;7.00;62.00
42199;DHT22;27868;45.184;5.786;2023-02-26T17:26:34;7.00;62.60
42199;DHT22;27868;45.184;5.786;2023-02-26T17:29:21;6.90;62.90
42199;DHT22;27868;45.184;5.786;2023-02-26T17:32:20;7.00;62.90
42199;DHT22;27868;45.184;5.786;2023-02-26T17:35:05;7.00;63.30
42199;DHT22;27868;45.184;5.786;2023-02-26T17:37:51;6.90;63.30
42199;DHT22;27868;45.184;5.786;2023-02-26T17:40:37;6.90;63.40
42199;DHT22;27868;45.184;5.786;2023-02-26T17:43:24;6.80;63.20
42199;DHT22;27868;45.184;5.786;2023-02-26T17:46:10;6.80;63.50
42199;DHT22;27868;45.184;5.786;2023-02-26T17:48:55;6.80;63.70
42199;DHT22;27868;45.184;5.786;2023-02-26T17:51:40;6.80;63.90
42199;DHT22;27868;45.184;5.786;2023-02-26T17:54:25;6.70;64.50
42199;DHT22;27868;45.184;5.786;2023-02-26T17:57:15;6.80;64.10
42199;DHT22;27868;45.184;5.786;2023-02-26T18:00:01;6.80;64.40
42199;DHT22;27868;45.184;5.786;2023-02-26T18:02:45;6.80;64.60
42199;DHT22;27868;45.184;5.786;2023-02-26T18:05:30;6.80;64.60
42199;DHT22;27868;45.184;5.786;2023-02-26T18:08:28;6.80;64.70
42199;DHT22;27868;45.184;5.786;2023-02-26T18:11:15;6.80;64.70
42199;DHT22;27868;45.184;5.786;2023-02-26T18:14:00;6.80;64.80
42199;DHT22;27868;45.184;5.786;2023-02-26T18:16:45;6.70;64.70
42199;DHT22;27868;45.184;5.786;2023-02-26T18:19:30;6.70;64.80
42199;DHT22;27868;45.184;5.786;2023-02-26T18:22:16;6.80;65.10
42199;DHT22;27868;45.184;5.786;2023-02-26T18:25:00;6.80;65.10
42199;DHT22;27868;45.184;5.786;2023-02-26T18:27:50;6.70;65.20
42199;DHT22;27868;45.184;5.786;2023-02-26T18:30:38;6.70;65.90
42199;DHT22;27868;45.184;5.786;2023-02-26T18:33:24;6.70;65.70
42199;DHT22;27868;45.184;5.786;2023-02-26T18:36:18;6.70;65.90
42199;DHT22;27868;45.184;5.786;2023-02-26T18:39:06;6.70;66.30
42199;DHT22;27868;45.184;5.786;2023-02-26T18:41:52;6.70;66.60
42199;DHT22;27868;45.184;5.786;2023-02-26T18:44:37;6.60;66.90
42199;DHT22;27868;45.184;5.786;2023-02-26T18:47:22;6.60;67.30
42199;DHT22;27868;45.184;5.786;2023-02-26T18:50:09;6.60;67.90
42199;DHT22;27868;45.184;5.786;2023-02-26T18:52:55;6.60;68.10
42199;DHT22;27868;45.184;5.786;2023-02-26T18:55:40;6.60;68.60
42199;DHT22;27868;45.184;5.786;2023-02-26T18:58:25;6.50;69.00
42199;DHT22;27868;45.184;5.786;2023-02-26T19:01:09;6.50;69.40
42199;DHT22;27868;45.184;5.786;2023-02-26T19:03:54;6.50;69.80
42199;DHT22;27868;45.184;5.786;2023-02-26T19:06:39;6.50;70.30
42199;DHT22;27868;45.184;5.786;2023-02-26T19:09:24;6.40;70.80
42199;DHT22;27868;45.184;5.786;2023-02-26T19:12:10;6.40;71.10
42199;DHT22;27868;45.184;5.786;2023-02-26T19:15:01;6.40;71.50
42199;DHT22;27868;45.184;5.786;2023-02-26T19:17:46;6.40;71.80
42199;DHT22;27868;45.184;5.786;2023-02-26T19:20:30;6.40;72.30
42199;DHT22;27868;45.184;5.786;2023-02-26T19:23:15;6.30;72.50
42199;DHT22;27868;45.184;5.786;2023-02-26T19:25:59;6.30;72.70
42199;DHT22;27868;45.184;5.786;2023-02-26T19:28:44;6.40;73.00
42199;DHT22;27868;45.184;5.786;2023-02-26T19:31:28;6.30;73.20
42199;DHT22;27868;45.184;5.786;2023-02-26T19:34:14;6.30;73.40
42199;DHT22;27868;45.184;5.786;2023-02-26T19:36:58;6.30;73.60
42199;DHT22;27868;45.184;5.786;2023-02-26T19:39:44;6.30;73.70
42199;DHT22;27868;45.184;5.786;2023-02-26T19:42:28;6.30;73.90
42199;DHT22;27868;45.184;5.786;2023-02-26T19:45:14;6.30;74.10
42199;DHT22;27868;45.184;5.786;2023-02-26T19:47:59;6.30;74.30
42199;DHT22;27868;45.184;5.786;2023-02-26T19:50:45;6.30;74.40
42199;DHT22;27868;45.184;5.786;2023-02-26T19:53:30;6.30;74.30
42199;DHT22;27868;45.184;5.786;2023-02-26T19:56:15;6.20;74.30
42199;DHT22;27868;45.184;5.786;2023-02-26T19:58:59;6.20;74.40
42199;DHT22;27868;45.184;5.786;2023-02-26T20:01:44;6.20;74.50
42199;DHT22;27868;45.184;5.786;2023-02-26T20:04:32;6.20;74.60
42199;DHT22;27868;45.184;5.786;2023-02-26T20:07:16;6.20;74.60
42199;DHT22;27868;45.184;5.786;2023-02-26T20:10:01;6.20;74.70
42199;DHT22;27868;45.184;5.786;2023-02-26T20:12:46;6.20;74.80
42199;DHT22;27868;45.184;5.786;2023-02-26T20:15:31;6.20;74.60
42199;DHT22;27868;45.184;5.786;2023-02-26T20:18:17;6.20;74.70
42199;DHT22;27868;45.184;5.786;2023-02-26T20:21:05;6.10;74.70
42199;DHT22;27868;45.184;5.786;2023-02-26T20:23:51;6.10;74.60
42199;DHT22;27868;45.184;5.786;2023-02-26T20:26:37;6.10;74.50
42199;DHT22;27868;45.184;5.786;2023-02-26T20:29:21;6.10;74.50
42199;DHT22;27868;45.184;5.786;2023-02-26T20:32:06;6.10;74.70
42199;DHT22;27868;45.184;5.786;2023-02-26T20:34:51;6.10;74.80
42199;DHT22;27868;45.184;5.786;2023-02-26T20:37:35;6.10;74.70
42199;DHT22;27868;45.184;5.786;2023-02-26T20:40:20;6.10;74.50
42199;DHT22;27868;45.184;5.786;2023-02-26T20:43:05;6.10;74.50
42199;DHT22;27868;45.184;5.786;2023-02-26T20:45:52;6.00;74.50
42199;DHT22;27868;45.184;5.786;2023-02-26T20:48:38;6.00;74.70
42199;DHT22;27868;45.184;5.786;2023-02-26T20:51:25;6.00;74.60
42199;DHT22;27868;45.184;5.786;2023-02-26T20:54:10;6.00;74.70